Time;durP1;ratioP1;P1;durP2;ratioP2;P2;SDS_P1;SDS_P2;PMS_P1;PMS_P2;Temp;Humidity;BMP_temperature;BMP_pressure;BME280_temperature;BME280_humidity;BME280_pressure;Samples;Min_cycle;Max_cycle;Signal;HPM_P1;HPM_P2
2023/06/13 00:00:29;;;;;;;3.60;3.30;;;;;;;;;;5158905;27;20224;-64
2023/06/13 00:02:58;;;;;;;3.75;3.45;;;;;;;;;;5158908;27;20237;-63
2023/06/13 00:05:26;;;;;;;3.72;3.42;;;;;;;;;;5158586;27;20492;-63
2023/06/13 00:07:56;;;;;;;3.65;3.38;;;;;;;;;;5158978;27;20202;-63
2023/06/13 00:10:23;;;;;;;3.83;3.53;;;;;;;;;;5159009;27;20630;-63
2023/06/13 00:12:51;;;;;;;3.78;3.47;;;;;;;;;;5158479;27;21174;-63
2023/06/13 00:15:18;;;;;;;3.78;3.47;;;;;;;;;;5158511;27;20201;-63
2023/06/13 00:17:47;;;;;;;3.75;3.45;;;;;;;;;;5158829;27;20208;-63
2023/06/13 00:20:15;;;;;;;3.45;3.17;;;;;;;;;;5158619;27;20226;-63
2023/06/13 00:22:45;;;;;;;3.85;3.55;;;;;;;;;;5158790;27;20642;-63
2023/06/13 00:25:13;;;;;;;3.92;3.63;;;;;;;;;;5158659;27;20262;-63
2023/06/13 00:27:41;;;;;;;3.63;3.33;;;;;;;;;;5159056;27;20210;-63
2023/06/13 00:30:09;;;;;;;3.70;3.40;;;;;;;;;;5158566;27;20205;-63
2023/06/13 00:32:36;;;;;;;3.58;3.30;;;;;;;;;;5161460;27;20788;-63
2023/06/13 00:35:04;;;;;;;4.07;3.40;;;;;;;;;;5162557;27;20201;-63
2023/06/13 00:37:34;;;;;;;3.53;3.22;;;;;;;;;;5162112;27;20209;-63
2023/06/13 00:40:02;;;;;;;4.03;3.63;;;;;;;;;;5162011;27;20232;-64
2023/06/13 00:42:31;;;;;;;3.75;3.45;;;;;;;;;;5162017;27;20202;-63
2023/06/13 00:45:17;;;;;;;3.63;3.33;;;;;;;;;;5162450;27;20212;-64
2023/06/13 00:47:45;;;;;;;3.88;3.58;;;;;;;;;;5162031;27;20269;-63
2023/06/13 00:50:14;;;;;;;3.90;3.60;;;;;;;;;;5162309;27;20225;-63
2023/06/13 00:52:42;;;;;;;3.83;3.47;;;;;;;;;;5161888;27;20201;-63
2023/06/13 00:55:11;;;;;;;3.50;3.30;;;;;;;;;;5162236;27;20285;-64
2023/06/13 00:57:40;;;;;;;3.72;3.50;;;;;;;;;;5161993;27;20297;-64
2023/06/13 01:00:08;;;;;;;3.60;3.30;;;;;;;;;;5161748;27;20275;-64
2023/06/13 01:02:36;;;;;;;3.55;3.25;;;;;;;;;;5161539;27;20205;-64
2023/06/13 01:05:04;;;;;;;3.63;3.42;;;;;;;;;;5161580;27;20206;-63
2023/06/13 01:07:33;;;;;;;3.70;3.40;;;;;;;;;;5161887;27;20240;-63
2023/06/13 01:10:01;;;;;;;4.28;3.60;;;;;;;;;;5162232;27;20210;-63
2023/06/13 01:12:32;;;;;;;3.40;3.20;;;;;;;;;;5162022;27;20626;-63
2023/06/13 01:15:05;;;;;;;4.07;3.67;;;;;;;;;;5161869;27;20208;-63
2023/06/13 01:17:36;;;;;;;3.22;3.03;;;;;;;;;;5161257;27;20201;-63
2023/06/13 01:20:10;;;;;;;3.78;3.47;;;;;;;;;;5161228;27;20201;-64
2023/06/13 01:22:42;;;;;;;3.80;3.53;;;;;;;;;;5161682;27;20220;-64
2023/06/13 01:25:13;;;;;;;3.75;3.45;;;;;;;;;;5161372;27;20685;-64
2023/06/13 01:27:45;;;;;;;3.60;3.40;;;;;;;;;;5161276;27;20233;-63
2023/06/13 01:30:13;;;;;;;3.90;3.60;;;;;;;;;;5161478;27;20254;-64
2023/06/13 01:32:41;;;;;;;3.97;3.67;;;;;;;;;;5161351;27;20616;-64
2023/06/13 01:35:09;;;;;;;3.70;3.50;;;;;;;;;;5161359;27;20201;-63
2023/06/13 01:37:36;;;;;;;3.60;3.40;;;;;;;;;;5160926;27;20206;-63
2023/06/13 01:40:04;;;;;;;3.75;3.45;;;;;;;;;;5161227;27;20209;-63
2023/06/13 01:42:32;;;;;;;3.58;3.17;;;;;;;;;;5160361;27;20209;-63
2023/06/13 01:45:02;;;;;;;3.70;3.40;;;;;;;;;;5160867;27;20705;-63
2023/06/13 01:47:32;;;;;;;4.10;3.80;;;;;;;;;;5160775;27;20212;-63
2023/06/13 01:50:04;;;;;;;3.75;3.55;;;;;;;;;;5161024;27;20202;-63
2023/06/13 01:52:36;;;;;;;3.83;3.53;;;;;;;;;;5161142;27;20270;-64
2023/06/13 01:55:05;;;;;;;3.80;3.50;;;;;;;;;;5160930;27;20549;-63
2023/06/13 01:57:37;;;;;;;3.92;3.70;;;;;;;;;;5160764;27;20202;-63
2023/06/13 02:00:09;;;;;;;3.83;3.38;;;;;;;;;;5160743;27;20262;-63
2023/06/13 02:02:37;;;;;;;4.13;3.72;;;;;;;;;;5161261;27;20477;-63
2023/06/13 02:05:06;;;;;;;3.90;3.60;;;;;;;;;;5160504;27;20212;-63
2023/06/13 02:07:36;;;;;;;3.80;3.50;;;;;;;;;;5160751;27;20565;-63
2023/06/13 02:10:06;;;;;;;4.15;3.83;;;;;;;;;;5160649;27;20299;-63
2023/06/13 02:12:33;;;;;;;4.18;3.78;;;;;;;;;;5160673;27;20202;-63
2023/06/13 02:15:02;;;;;;;3.67;3.47;;;;;;;;;;5160592;27;20269;-63
2023/06/13 02:17:31;;;;;;;4.10;3.80;;;;;;;;;;5161060;27;20460;-63
2023/06/13 02:19:59;;;;;;;3.90;3.60;;;;;;;;;;5160437;27;20213;-63
2023/06/13 02:22:27;;;;;;;3.72;3.42;;;;;;;;;;5160192;27;20225;-64
2023/06/13 02:24:55;;;;;;;3.80;3.60;;;;;;;;;;5160446;27;20201;-64
2023/06/13 02:27:22;;;;;;;3.92;3.53;;;;;;;;;;5160302;27;20296;-64
2023/06/13 02:29:51;;;;;;;4.03;3.72;;;;;;;;;;5160204;27;20708;-64
2023/06/13 02:32:21;;;;;;;3.47;3.20;;;;;;;;;;5160653;27;20204;-63
2023/06/13 02:34:50;;;;;;;3.63;3.40;;;;;;;;;;5160073;27;20201;-63
2023/06/13 02:37:20;;;;;;;3.80;3.42;;;;;;;;;;5160136;27;20536;-64
2023/06/13 02:39:47;;;;;;;3.72;3.42;;;;;;;;;;5160252;27;20621;-64
2023/06/13 02:42:15;;;;;;;3.60;3.40;;;;;;;;;;5159835;27;20221;-63
2023/06/13 02:44:42;;;;;;;3.85;3.55;;;;;;;;;;5159924;27;20201;-64
2023/06/13 02:47:10;;;;;;;3.75;3.45;;;;;;;;;;5159588;27;20651;-63
2023/06/13 02:49:37;;;;;;;3.72;3.53;;;;;;;;;;5159459;27;20209;-63
2023/06/13 02:52:07;;;;;;;3.38;3.17;;;;;;;;;;5159539;27;20352;-63
2023/06/13 02:54:35;;;;;;;3.67;3.47;;;;;;;;;;5144857;27;20238;-63
2023/06/13 02:57:03;;;;;;;3.97;3.60;;;;;;;;;;5139066;27;20202;-63
2023/06/13 02:59:32;;;;;;;3.90;3.60;;;;;;;;;;5139141;27;20202;-63
2023/06/13 03:01:59;;;;;;;3.80;3.50;;;;;;;;;;5138305;27;20272;-63
2023/06/13 03:04:28;;;;;;;3.95;3.65;;;;;;;;;;5138485;27;20578;-63
2023/06/13 03:06:55;;;;;;;3.85;3.55;;;;;;;;;;5138653;27;20586;-63
2023/06/13 03:09:24;;;;;;;4.00;3.63;;;;;;;;;;5138921;27;20238;-63
2023/06/13 03:11:52;;;;;;;3.70;3.40;;;;;;;;;;5138729;27;20198;-64
2023/06/13 03:14:19;;;;;;;3.58;3.28;;;;;;;;;;5138525;27;20197;-64
2023/06/13 03:16:47;;;;;;;3.80;3.50;;;;;;;;;;5138560;27;20210;-63
2023/06/13 03:19:15;;;;;;;3.58;3.30;;;;;;;;;;5138307;27;20209;-63
2023/06/13 03:21:42;;;;;;;3.67;3.40;;;;;;;;;;5138475;27;20312;-63
2023/06/13 03:24:10;;;;;;;3.80;3.50;;;;;;;;;;5138223;27;20202;-63
2023/06/13 03:26:39;;;;;;;3.80;3.50;;;;;;;;;;5138363;27;20270;-63
2023/06/13 03:29:07;;;;;;;3.70;3.40;;;;;;;;;;5138444;27;20202;-63
2023/06/13 03:31:35;;;;;;;3.30;2.97;;;;;;;;;;5138463;27;20311;-63
2023/06/13 03:34:03;;;;;;;3.88;3.58;;;;;;;;;;5138357;27;20210;-63
2023/06/13 03:36:33;;;;;;;3.90;3.60;;;;;;;;;;5138351;28;20206;-63
2023/06/13 03:39:00;;;;;;;4.00;3.70;;;;;;;;;;5138372;27;20213;-63
2023/06/13 03:41:28;;;;;;;3.65;3.35;;;;;;;;;;5138216;27;20268;-63
2023/06/13 03:43:57;;;;;;;3.63;3.40;;;;;;;;;;5138112;27;20210;-63
2023/06/13 03:46:24;;;;;;;3.55;3.33;;;;;;;;;;5137786;27;20238;-63
2023/06/13 03:48:52;;;;;;;3.88;3.58;;;;;;;;;;5138334;28;20593;-64
2023/06/13 03:51:19;;;;;;;3.60;3.28;;;;;;;;;;5137956;27;20198;-63
2023/06/13 03:53:47;;;;;;;3.60;3.40;;;;;;;;;;5137999;27;20477;-63
2023/06/13 03:56:14;;;;;;;3.90;3.60;;;;;;;;;;5138159;28;20286;-63
2023/06/13 03:58:42;;;;;;;3.78;3.47;;;;;;;;;;5138139;27;20738;-63
2023/06/13 04:01:11;;;;;;;4.10;3.70;;;;;;;;;;5138187;27;20693;-63
2023/06/13 04:03:39;;;;;;;3.95;3.70;;;;;;;;;;5137287;27;20202;-63
2023/06/13 04:06:07;;;;;;;3.63;3.42;;;;;;;;;;5138578;27;20202;-63
2023/06/13 04:08:35;;;;;;;3.97;3.67;;;;;;;;;;5141774;27;20210;-63
2023/06/13 04:11:03;;;;;;;3.67;3.40;;;;;;;;;;5142141;27;20228;-63
2023/06/13 04:13:30;;;;;;;4.93;3.65;;;;;;;;;;5141572;27;20202;-64
2023/06/13 04:15:57;;;;;;;3.92;3.58;;;;;;;;;;5142191;27;20230;-63
2023/06/13 04:18:26;;;;;;;3.88;3.47;;;;;;;;;;5141826;27;20210;-63
2023/06/13 04:20:53;;;;;;;4.13;3.70;;;;;;;;;;5141851;27;20214;-63
2023/06/13 04:23:21;;;;;;;3.67;3.38;;;;;;;;;;5141304;27;20206;-63
2023/06/13 04:25:49;;;;;;;3.78;3.47;;;;;;;;;;5141743;27;20541;-63
2023/06/13 04:28:17;;;;;;;3.95;3.65;;;;;;;;;;5141347;27;20209;-63
2023/06/13 04:30:46;;;;;;;3.95;3.65;;;;;;;;;;5141128;27;20465;-63
2023/06/13 04:33:17;;;;;;;3.92;3.53;;;;;;;;;;5141182;27;20198;-63
2023/06/13 04:35:48;;;;;;;3.63;3.42;;;;;;;;;;5140441;27;20588;-63
2023/06/13 04:38:16;;;;;;;4.00;3.70;;;;;;;;;;5140321;27;20309;-63
2023/06/13 04:40:43;;;;;;;4.07;3.78;;;;;;;;;;5140230;27;20206;-63
2023/06/13 04:43:14;;;;;;;4.35;3.95;;;;;;;;;;5140036;27;20218;-63
2023/06/13 04:45:42;;;;;;;3.88;3.58;;;;;;;;;;5139562;27;20325;-63
2023/06/13 04:48:10;;;;;;;3.38;3.17;;;;;;;;;;5139892;27;20296;-63
2023/06/13 04:50:40;;;;;;;3.72;3.42;;;;;;;;;;5140160;27;20302;-63
2023/06/13 04:53:11;;;;;;;3.60;3.30;;;;;;;;;;5139855;27;20206;-63
2023/06/13 04:55:38;;;;;;;3.40;3.20;;;;;;;;;;5140626;27;20549;-63
2023/06/13 04:58:06;;;;;;;3.47;3.20;;;;;;;;;;5139222;27;20209;-63
2023/06/13 05:00:33;;;;;;;3.58;3.38;;;;;;;;;;5138422;27;20209;-63
2023/06/13 05:03:01;;;;;;;3.63;3.42;;;;;;;;;;5138125;27;20237;-63
2023/06/13 05:05:29;;;;;;;4.15;3.85;;;;;;;;;;5138292;27;20202;-63
2023/06/13 05:07:59;;;;;;;4.00;3.70;;;;;;;;;;5137910;27;20285;-63
2023/06/13 05:10:28;;;;;;;4.18;3.88;;;;;;;;;;5137988;27;20198;-63
2023/06/13 05:12:55;;;;;;;4.20;3.80;;;;;;;;;;5137763;27;20465;-63
2023/06/13 05:15:24;;;;;;;4.00;3.70;;;;;;;;;;5138057;27;20198;-63
2023/06/13 05:17:54;;;;;;;4.10;3.75;;;;;;;;;;5138545;27;20220;-63
2023/06/13 05:20:26;;;;;;;4.10;3.80;;;;;;;;;;5138127;27;20213;-64
2023/06/13 05:22:53;;;;;;;4.20;3.80;;;;;;;;;;5139101;27;20275;-63
2023/06/13 05:25:21;;;;;;;4.68;4.28;;;;;;;;;;5138401;27;20226;-63
2023/06/13 05:27:49;;;;;;;4.50;4.20;;;;;;;;;;5137722;27;20206;-63
2023/06/13 05:30:17;;;;;;;4.50;4.10;;;;;;;;;;5138362;27;20471;-63
2023/06/13 05:32:44;;;;;;;4.80;4.40;;;;;;;;;;5137840;27;20198;-63
2023/06/13 05:35:12;;;;;;;4.72;4.32;;;;;;;;;;5137569;27;20213;-64
2023/06/13 05:37:39;;;;;;;4.78;4.47;;;;;;;;;;5137677;27;20217;-64
2023/06/13 05:40:08;;;;;;;4.30;4.00;;;;;;;;;;5137471;27;20468;-64
2023/06/13 05:42:36;;;;;;;4.40;4.10;;;;;;;;;;5137515;27;20286;-63
2023/06/13 05:45:05;;;;;;;4.20;3.90;;;;;;;;;;5137241;27;20213;-63
2023/06/13 05:47:33;;;;;;;4.05;3.72;;;;;;;;;;5137203;27;20194;-63
2023/06/13 05:50:01;;;;;;;4.53;4.22;;;;;;;;;;5137106;27;20330;-64
2023/06/13 05:52:29;;;;;;;4.30;4.00;;;;;;;;;;5136606;27;20198;-63
2023/06/13 05:54:56;;;;;;;4.55;4.25;;;;;;;;;;5137074;27;20198;-63
2023/06/13 05:57:25;;;;;;;4.15;3.85;;;;;;;;;;5137703;27;20202;-64
2023/06/13 05:59:53;;;;;;;4.88;4.40;;;;;;;;;;5137461;27;20620;-64
2023/06/13 06:02:22;;;;;;;4.55;4.20;;;;;;;;;;5137093;27;20656;-64
2023/06/13 06:04:49;;;;;;;4.35;4.03;;;;;;;;;;5137557;27;20241;-64
2023/06/13 06:07:16;;;;;;;4.50;4.20;;;;;;;;;;5138115;27;20202;-63
2023/06/13 06:09:43;;;;;;;4.10;3.80;;;;;;;;;;5137807;27;20209;-63
2023/06/13 06:12:11;;;;;;;4.00;3.70;;;;;;;;;;5137542;27;20605;-63
2023/06/13 06:14:39;;;;;;;4.20;3.90;;;;;;;;;;5137611;27;20221;-63
2023/06/13 06:17:06;;;;;;;6.55;4.43;;;;;;;;;;5137099;27;20762;-64
2023/06/13 06:19:35;;;;;;;4.68;4.28;;;;;;;;;;5137346;27;20206;-64
2023/06/13 06:22:02;;;;;;;4.72;4.43;;;;;;;;;;5136719;27;20214;-63
2023/06/13 06:24:29;;;;;;;4.30;3.95;;;;;;;;;;5137239;27;20210;-63
2023/06/13 06:26:57;;;;;;;4.78;4.32;;;;;;;;;;5137435;27;20489;-63
2023/06/13 06:29:24;;;;;;;4.10;3.80;;;;;;;;;;5137556;27;20203;-63
2023/06/13 06:31:52;;;;;;;4.60;4.30;;;;;;;;;;5137792;27;20483;-63
2023/06/13 06:34:19;;;;;;;4.10;3.80;;;;;;;;;;5137970;27;20198;-64
2023/06/13 06:36:48;;;;;;;4.40;4.07;;;;;;;;;;5137172;27;20501;-63
2023/06/13 06:39:16;;;;;;;4.25;3.95;;;;;;;;;;5137738;27;20202;-63
2023/06/13 06:41:43;;;;;;;4.20;3.90;;;;;;;;;;5137462;27;20252;-63
2023/06/13 06:44:11;;;;;;;4.75;4.35;;;;;;;;;;5137604;27;20202;-63
2023/06/13 06:46:38;;;;;;;4.28;3.97;;;;;;;;;;5137226;27;20229;-63
2023/06/13 06:49:05;;;;;;;4.75;4.45;;;;;;;;;;5137428;27;20214;-63
2023/06/13 06:51:33;;;;;;;4.28;3.97;;;;;;;;;;5136814;27;20198;-63
2023/06/13 06:54:02;;;;;;;4.20;3.90;;;;;;;;;;5136530;27;20202;-63
2023/06/13 06:56:29;;;;;;;4.55;4.25;;;;;;;;;;5135746;27;20229;-63
2023/06/13 06:58:56;;;;;;;4.60;4.20;;;;;;;;;;5137356;27;20202;-64
2023/06/13 07:01:24;;;;;;;4.32;4.03;;;;;;;;;;5135828;27;20210;-64
2023/06/13 07:03:51;;;;;;;5.03;4.63;;;;;;;;;;5136429;27;20237;-64
2023/06/13 07:06:19;;;;;;;3.72;3.42;;;;;;;;;;5137184;27;20202;-64
2023/06/13 07:08:46;;;;;;;4.13;3.83;;;;;;;;;;5135201;27;20206;-63
2023/06/13 07:11:15;;;;;;;3.92;3.63;;;;;;;;;;5135883;27;20206;-64
2023/06/13 07:13:43;;;;;;;4.03;3.72;;;;;;;;;;5136098;27;20470;-63
2023/06/13 07:16:10;;;;;;;4.05;3.75;;;;;;;;;;5136480;27;20203;-63
2023/06/13 07:18:37;;;;;;;4.00;3.70;;;;;;;;;;5135447;27;20198;-63
2023/06/13 07:21:05;;;;;;;3.40;3.20;;;;;;;;;;5136562;27;20698;-64
2023/06/13 07:23:32;;;;;;;4.10;3.75;;;;;;;;;;5135793;27;20241;-64
2023/06/13 07:25:59;;;;;;;3.80;3.60;;;;;;;;;;5135967;27;20202;-64
2023/06/13 07:28:28;;;;;;;4.30;4.00;;;;;;;;;;5135873;27;20204;-64
2023/06/13 07:30:58;;;;;;;3.85;3.45;;;;;;;;;;5136317;27;20203;-64
2023/06/13 07:33:26;;;;;;;4.00;3.70;;;;;;;;;;5136199;27;20198;-63
2023/06/13 07:35:53;;;;;;;3.63;3.42;;;;;;;;;;5136084;27;20657;-63
2023/06/13 07:38:23;;;;;;;4.20;3.80;;;;;;;;;;5136351;28;20203;-63
2023/06/13 07:40:51;;;;;;;3.67;3.47;;;;;;;;;;5136839;27;20198;-64
2023/06/13 07:43:19;;;;;;;3.70;3.50;;;;;;;;;;5140533;27;20218;-64
2023/06/13 07:45:47;;;;;;;3.80;3.50;;;;;;;;;;5140000;27;20739;-64
2023/06/13 07:48:15;;;;;;;3.63;3.38;;;;;;;;;;5139606;27;20493;-63
2023/06/13 07:50:42;;;;;;;3.95;3.65;;;;;;;;;;5140232;27;20201;-64
2023/06/13 07:53:10;;;;;;;3.72;3.50;;;;;;;;;;5139449;27;20205;-64
2023/06/13 07:55:38;;;;;;;4.03;3.70;;;;;;;;;;5139754;27;20206;-64
2023/06/13 07:58:05;;;;;;;4.15;3.85;;;;;;;;;;5139662;27;20280;-64
2023/06/13 08:00:32;;;;;;;3.90;3.60;;;;;;;;;;5139959;27;20202;-64
2023/06/13 08:03:01;;;;;;;4.18;3.78;;;;;;;;;;5140101;27;20222;-64
2023/06/13 08:05:29;;;;;;;3.80;3.50;;;;;;;;;;5139457;27;20202;-63
2023/06/13 08:07:57;;;;;;;3.65;3.40;;;;;;;;;;5122722;27;20491;-63
2023/06/13 08:10:25;;;;;;;4.03;3.72;;;;;;;;;;5119083;28;20213;-63
2023/06/13 08:12:53;;;;;;;3.63;3.40;;;;;;;;;;5119504;28;20553;-63
2023/06/13 08:15:20;;;;;;;3.55;3.30;;;;;;;;;;5119267;28;20203;-63
2023/06/13 08:17:47;;;;;;;3.58;3.30;;;;;;;;;;5119323;28;20214;-63
2023/06/13 08:20:16;;;;;;;4.10;3.70;;;;;;;;;;5118911;28;20202;-64
2023/06/13 08:22:43;;;;;;;3.55;3.35;;;;;;;;;;5119221;28;20223;-64
2023/06/13 08:25:11;;;;;;;3.65;3.35;;;;;;;;;;5118545;28;20361;-63
2023/06/13 08:27:38;;;;;;;3.50;3.30;;;;;;;;;;5118205;28;20722;-63
2023/06/13 08:30:06;;;;;;;3.65;3.35;;;;;;;;;;5118289;28;20268;-63
2023/06/13 08:32:34;;;;;;;3.75;3.42;;;;;;;;;;5117878;28;20210;-64
2023/06/13 08:35:01;;;;;;;3.80;3.50;;;;;;;;;;5118295;28;20199;-64
2023/06/13 08:37:30;;;;;;;3.80;3.50;;;;;;;;;;5118671;28;20203;-64
2023/06/13 08:39:58;;;;;;;3.40;3.10;;;;;;;;;;5118510;28;20276;-64
2023/06/13 08:42:26;;;;;;;3.80;3.50;;;;;;;;;;5118121;28;20269;-64
2023/06/13 08:44:53;;;;;;;3.50;3.20;;;;;;;;;;5117920;28;20203;-64
2023/06/13 08:47:21;;;;;;;3.45;3.25;;;;;;;;;;5118560;28;20245;-64
2023/06/13 08:49:49;;;;;;;3.92;3.63;;;;;;;;;;5118166;28;20488;-64
2023/06/13 08:52:19;;;;;;;3.45;3.15;;;;;;;;;;5117221;28;20762;-64
2023/06/13 08:54:50;;;;;;;3.58;3.28;;;;;;;;;;5118310;28;20238;-63
2023/06/13 08:57:17;;;;;;;3.55;3.25;;;;;;;;;;5118051;28;20780;-64
2023/06/13 08:59:45;;;;;;;3.55;3.25;;;;;;;;;;5118091;28;20524;-64
2023/06/13 09:02:16;;;;;;;3.67;3.40;;;;;;;;;;5118127;28;20592;-64
2023/06/13 09:04:45;;;;;;;3.28;3.05;;;;;;;;;;5117319;28;20195;-63
2023/06/13 09:07:13;;;;;;;3.40;3.20;;;;;;;;;;5118062;28;20207;-64
2023/06/13 09:09:41;;;;;;;3.47;3.17;;;;;;;;;;5118000;28;20203;-64
2023/06/13 09:12:13;;;;;;;3.38;3.17;;;;;;;;;;5117477;28;20221;-64
2023/06/13 09:14:40;;;;;;;3.35;3.13;;;;;;;;;;5116978;28;20214;-64
2023/06/13 09:17:08;;;;;;;3.60;3.38;;;;;;;;;;5118165;28;20195;-63
2023/06/13 09:19:36;;;;;;;3.63;3.22;;;;;;;;;;5117987;28;20673;-63
2023/06/13 09:22:03;;;;;;;3.15;2.95;;;;;;;;;;5118458;28;20234;-63
2023/06/13 09:24:32;;;;;;;5.43;4.03;;;;;;;;;;5117035;28;20226;-63
2023/06/13 09:27:02;;;;;;;3.58;3.22;;;;;;;;;;5116315;28;20199;-63
2023/06/13 09:29:35;;;;;;;4.75;3.25;;;;;;;;;;5118187;28;20225;-62
2023/06/13 09:32:03;;;;;;;3.63;3.35;;;;;;;;;;5117623;28;20632;-63
2023/06/13 09:34:30;;;;;;;3.72;3.38;;;;;;;;;;5117532;28;20191;-63
2023/06/13 09:36:58;;;;;;;3.63;3.20;;;;;;;;;;5117634;28;20210;-62
2023/06/13 09:39:27;;;;;;;3.60;3.25;;;;;;;;;;5116953;28;20203;-62
2023/06/13 09:41:55;;;;;;;3.85;3.50;;;;;;;;;;5116923;28;20214;-62
2023/06/13 09:44:24;;;;;;;3.83;3.28;;;;;;;;;;5117359;28;20626;-62
2023/06/13 09:46:53;;;;;;;3.90;3.60;;;;;;;;;;5116942;28;20247;-62
2023/06/13 09:49:20;;;;;;;4.20;3.40;;;;;;;;;;5117135;28;20211;-62
2023/06/13 09:51:48;;;;;;;4.57;3.38;;;;;;;;;;5117313;28;20203;-63
2023/06/13 09:54:16;;;;;;;3.97;3.67;;;;;;;;;;5116247;28;20207;-62
2023/06/13 09:56:43;;;;;;;3.92;3.58;;;;;;;;;;5116502;28;20207;-62
2023/06/13 09:59:17;;;;;;;4.15;3.75;;;;;;;;;;5115896;28;20274;-62
2023/06/13 10:01:47;;;;;;;3.72;3.40;;;;;;;;;;5116195;28;20811;-62
2023/06/13 10:04:15;;;;;;;4.10;3.70;;;;;;;;;;5115176;28;20345;-62
2023/06/13 10:06:43;;;;;;;3.90;3.60;;;;;;;;;;5115718;28;20207;-63
2023/06/13 10:09:12;;;;;;;4.32;3.42;;;;;;;;;;5115826;28;20210;-62
2023/06/13 10:11:40;;;;;;;3.63;3.33;;;;;;;;;;5115530;28;20264;-63
2023/06/13 10:14:10;;;;;;;5.47;3.75;;;;;;;;;;5115608;28;20483;-63
2023/06/13 10:16:40;;;;;;;3.72;3.42;;;;;;;;;;5116006;28;20198;-62
2023/06/13 10:19:08;;;;;;;3.83;3.22;;;;;;;;;;5114915;28;20211;-63
2023/06/13 10:21:38;;;;;;;3.60;3.30;;;;;;;;;;5115392;28;20203;-62
2023/06/13 10:24:06;;;;;;;3.80;3.50;;;;;;;;;;5115427;28;20223;-62
2023/06/13 10:26:36;;;;;;;4.93;3.47;;;;;;;;;;5115316;28;20489;-62
2023/06/13 10:29:31;;;;;;;3.83;3.40;;;;;;;;;;5115245;28;20199;-62
2023/06/13 10:32:07;;;;;;;3.60;3.30;;;;;;;;;;5067508;28;20214;-62
2023/06/13 10:34:43;;;;;;;3.55;3.30;;;;;;;;;;5115720;28;20198;-62
2023/06/13 10:37:38;;;;;;;4.22;3.20;;;;;;;;;;5115327;28;20205;-62
2023/06/13 10:40:20;;;;;;;4.10;3.47;;;;;;;;;;5115136;28;20662;-63
2023/06/13 10:42:49;;;;;;;3.97;3.67;;;;;;;;;;5115484;28;20210;-63
2023/06/13 10:45:18;;;;;;;3.85;3.53;;;;;;;;;;5115008;28;20198;-63
2023/06/13 10:47:46;;;;;;;3.58;3.30;;;;;;;;;;5115018;28;20213;-62
2023/06/13 10:50:15;;;;;;;3.75;3.50;;;;;;;;;;5115159;28;20202;-63
2023/06/13 10:52:48;;;;;;;3.78;3.35;;;;;;;;;;5115256;28;20271;-63
2023/06/13 10:55:23;;;;;;;3.40;3.10;;;;;;;;;;5115012;28;20205;-63
2023/06/13 10:57:52;;;;;;;4.05;3.65;;;;;;;;;;5116027;28;20301;-63
2023/06/13 11:00:26;;;;;;;5.53;3.88;;;;;;;;;;5115755;28;20207;-62
2023/06/13 11:02:58;;;;;;;4.03;3.72;;;;;;;;;;5114225;28;20202;-62
2023/06/13 11:05:26;;;;;;;4.18;3.70;;;;;;;;;;5114996;28;20195;-62
2023/06/13 11:07:56;;;;;;;4.18;3.70;;;;;;;;;;5115910;28;20202;-63
2023/06/13 11:10:24;;;;;;;5.10;3.80;;;;;;;;;;5115007;28;20255;-63
2023/06/13 11:12:53;;;;;;;6.22;3.53;;;;;;;;;;5115014;28;20472;-63
2023/06/13 11:15:22;;;;;;;4.45;4.00;;;;;;;;;;5114446;28;20195;-62
2023/06/13 11:18:13;;;;;;;4.35;3.50;;;;;;;;;;5115975;28;20198;-62
2023/06/13 11:20:48;;;;;;;4.43;3.92;;;;;;;;;;5081340;28;20203;-62
2023/06/13 11:23:17;;;;;;;4.32;3.90;;;;;;;;;;5114817;28;20202;-63
2023/06/13 11:25:45;;;;;;;3.90;3.60;;;;;;;;;;5114888;28;20206;-63
2023/06/13 11:28:14;;;;;;;3.92;3.58;;;;;;;;;;5115162;28;20210;-62
2023/06/13 11:30:43;;;;;;;4.43;3.70;;;;;;;;;;5114487;28;20263;-62
2023/06/13 11:33:11;;;;;;;6.68;3.28;;;;;;;;;;5113948;28;20621;-62
2023/06/13 11:35:39;;;;;;;4.00;3.70;;;;;;;;;;5114426;28;20199;-62
2023/06/13 11:38:09;;;;;;;4.03;3.70;;;;;;;;;;5115041;28;20263;-62
2023/06/13 11:40:39;;;;;;;3.83;3.50;;;;;;;;;;5114007;28;20217;-63
2023/06/13 11:43:07;;;;;;;3.80;3.50;;;;;;;;;;5113649;28;20657;-63
2023/06/13 11:45:35;;;;;;;4.10;3.80;;;;;;;;;;5114142;28;20314;-62
2023/06/13 11:48:03;;;;;;;3.80;3.50;;;;;;;;;;5114122;28;20786;-63
2023/06/13 11:50:32;;;;;;;3.90;3.60;;;;;;;;;;5113905;28;20713;-62
2023/06/13 11:53:06;;;;;;;4.47;4.05;;;;;;;;;;5115037;28;20264;-62
2023/06/13 11:55:34;;;;;;;5.40;3.70;;;;;;;;;;5115214;28;20257;-62
2023/06/13 11:58:03;;;;;;;3.80;3.50;;;;;;;;;;5114310;28;20398;-62
2023/06/13 12:00:48;;;;;;;4.10;3.65;;;;;;;;;;5114672;28;20195;-63
2023/06/13 12:03:17;;;;;;;4.05;3.65;;;;;;;;;;5113815;28;20751;-62
2023/06/13 12:05:45;;;;;;;4.30;3.90;;;;;;;;;;5114029;28;20199;-63
2023/06/13 12:08:12;;;;;;;3.88;3.58;;;;;;;;;;5113565;28;20222;-63
2023/06/13 12:10:40;;;;;;;4.80;3.60;;;;;;;;;;5114420;28;20210;-62
2023/06/13 12:13:11;;;;;;;3.80;3.50;;;;;;;;;;5114262;28;20199;-62
2023/06/13 12:15:40;;;;;;;3.90;3.60;;;;;;;;;;5114179;28;20195;-62
2023/06/13 12:18:08;;;;;;;3.70;3.42;;;;;;;;;;5114035;28;20210;-62
2023/06/13 12:20:47;;;;;;;4.00;3.70;;;;;;;;;;5114192;28;20214;-63
2023/06/13 12:23:15;;;;;;;4.40;3.88;;;;;;;;;;5113119;28;20206;-63
2023/06/13 12:25:43;;;;;;;4.15;3.70;;;;;;;;;;5113335;28;20223;-62
2023/06/13 12:28:12;;;;;;;3.85;3.55;;;;;;;;;;5116108;28;20202;-62
2023/06/13 12:30:41;;;;;;;4.20;3.80;;;;;;;;;;5117465;28;20207;-62
2023/06/13 12:33:09;;;;;;;3.83;3.53;;;;;;;;;;5117771;28;20203;-62
2023/06/13 12:35:36;;;;;;;4.30;3.35;;;;;;;;;;5117429;28;20579;-63
2023/06/13 12:38:04;;;;;;;3.50;3.20;;;;;;;;;;5116801;28;20203;-63
2023/06/13 12:40:35;;;;;;;3.83;3.53;;;;;;;;;;5117044;28;20536;-63
2023/06/13 12:43:03;;;;;;;3.67;3.38;;;;;;;;;;5116935;28;20210;-63
2023/06/13 12:45:32;;;;;;;4.03;3.53;;;;;;;;;;5117315;28;20231;-62
2023/06/13 12:48:00;;;;;;;4.10;3.80;;;;;;;;;;5118184;28;20698;-62
2023/06/13 12:50:30;;;;;;;4.10;3.70;;;;;;;;;;5117554;28;20316;-62
2023/06/13 12:53:02;;;;;;;3.95;3.60;;;;;;;;;;5117111;28;20298;-62
2023/06/13 12:55:30;;;;;;;4.03;3.63;;;;;;;;;;5117378;28;20289;-62
2023/06/13 12:57:57;;;;;;;3.70;3.40;;;;;;;;;;5117414;28;20211;-62
2023/06/13 13:00:24;;;;;;;4.20;3.80;;;;;;;;;;5116445;28;20713;-62
2023/06/13 13:02:53;;;;;;;4.03;3.72;;;;;;;;;;5117273;28;20194;-63
2023/06/13 13:05:21;;;;;;;4.10;3.70;;;;;;;;;;5116214;28;20219;-62
2023/06/13 13:07:51;;;;;;;3.67;3.38;;;;;;;;;;5117719;28;20286;-62
2023/06/13 13:10:18;;;;;;;4.32;3.55;;;;;;;;;;5116777;28;20515;-62
2023/06/13 13:12:46;;;;;;;4.40;3.80;;;;;;;;;;5117212;28;20195;-62
2023/06/13 13:15:13;;;;;;;3.85;3.55;;;;;;;;;;5117143;28;20199;-62
2023/06/13 13:17:41;;;;;;;3.80;3.50;;;;;;;;;;5117277;28;20466;-62
2023/06/13 13:20:10;;;;;;;4.10;3.70;;;;;;;;;;5116716;28;20195;-63
2023/06/13 13:22:37;;;;;;;3.95;3.65;;;;;;;;;;5117318;28;20786;-62
2023/06/13 13:25:05;;;;;;;3.97;3.50;;;;;;;;;;5117391;28;20226;-62
2023/06/13 13:27:33;;;;;;;4.32;3.90;;;;;;;;;;5116154;28;20599;-62
2023/06/13 13:30:00;;;;;;;4.10;3.70;;;;;;;;;;5115340;28;20233;-62
2023/06/13 13:32:28;;;;;;;3.63;3.33;;;;;;;;;;5116722;28;20509;-62
2023/06/13 13:34:55;;;;;;;4.00;3.70;;;;;;;;;;5115737;28;20249;-62
2023/06/13 13:37:24;;;;;;;4.00;3.70;;;;;;;;;;5116861;28;20210;-63
2023/06/13 13:39:51;;;;;;;3.70;3.40;;;;;;;;;;5115352;28;20199;-63
2023/06/13 13:42:19;;;;;;;4.00;3.70;;;;;;;;;;5116024;28;20203;-62
2023/06/13 13:44:47;;;;;;;4.20;3.80;;;;;;;;;;5116150;28;20230;-62
2023/06/13 13:47:14;;;;;;;4.15;3.75;;;;;;;;;;5115513;28;20238;-62
2023/06/13 13:49:41;;;;;;;4.22;3.90;;;;;;;;;;5114853;28;20602;-62
2023/06/13 13:52:09;;;;;;;4.35;4.00;;;;;;;;;;5116192;28;20202;-62
2023/06/13 13:54:37;;;;;;;3.80;3.50;;;;;;;;;;5116168;28;20229;-62
2023/06/13 13:57:06;;;;;;;3.88;3.63;;;;;;;;;;5115989;28;20205;-62
2023/06/13 13:59:34;;;;;;;4.18;3.85;;;;;;;;;;5115167;28;20195;-62
2023/06/13 14:02:01;;;;;;;4.13;3.83;;;;;;;;;;5115894;28;20206;-62
2023/06/13 14:04:29;;;;;;;4.10;3.80;;;;;;;;;;5114820;28;20489;-62
2023/06/13 14:06:56;;;;;;;4.18;3.78;;;;;;;;;;5115366;28;20313;-63
2023/06/13 14:09:23;;;;;;;4.15;3.85;;;;;;;;;;5116008;28;20206;-62
2023/06/13 14:11:52;;;;;;;6.53;3.90;;;;;;;;;;5115042;28;20222;-62
2023/06/13 14:14:20;;;;;;;4.28;3.97;;;;;;;;;;5114765;28;20191;-62
2023/06/13 14:16:48;;;;;;;4.30;3.92;;;;;;;;;;5115698;28;20203;-62
2023/06/13 14:19:15;;;;;;;4.28;3.65;;;;;;;;;;5115144;28;20485;-62
2023/06/13 14:21:42;;;;;;;3.90;3.60;;;;;;;;;;5115040;28;20535;-62
2023/06/13 14:24:11;;;;;;;4.18;3.88;;;;;;;;;;5115540;28;20202;-62
2023/06/13 14:26:38;;;;;;;4.10;3.80;;;;;;;;;;5115708;28;20199;-62
2023/06/13 14:29:07;;;;;;;3.92;3.63;;;;;;;;;;5115692;28;20210;-62
2023/06/13 14:31:36;;;;;;;4.43;4.07;;;;;;;;;;5130560;27;20297;-62
2023/06/13 14:34:03;;;;;;;4.10;3.72;;;;;;;;;;5135493;27;20281;-62
2023/06/13 14:36:31;;;;;;;4.35;3.90;;;;;;;;;;5135138;27;20202;-62
2023/06/13 14:39:04;;;;;;;4.70;4.30;;;;;;;;;;5135699;27;20221;-62
2023/06/13 14:41:32;;;;;;;4.10;3.70;;;;;;;;;;5135857;27;20202;-62
2023/06/13 14:43:59;;;;;;;4.25;3.72;;;;;;;;;;5135169;27;20203;-62
2023/06/13 14:46:28;;;;;;;4.10;3.80;;;;;;;;;;5134482;27;20613;-62
2023/06/13 14:48:55;;;;;;;4.68;4.28;;;;;;;;;;5134019;27;20198;-62
2023/06/13 14:51:23;;;;;;;4.30;4.00;;;;;;;;;;5134326;27;20207;-62